Time;durP1;ratioP1;P1;durP2;ratioP2;P2;SDS_P1;SDS_P2;PMS_P1;PMS_P2;Temp;Humidity;BMP_temperature;BMP_pressure;BME280_temperature;BME280_humidity;BME280_pressure;Samples;Min_cycle;Max_cycle;Signal;HPM_P1;HPM_P2
2023/04/15 00:00:36;;;;;;;7.00;4.30;;;;;;;-145.18;100.00;46840.09;6153076;23;20010;-73
2023/04/15 00:03:01;;;;;;;8.20;5.10;;;;;;;-145.18;100.00;46853.78;6152703;23;20252;-72
2023/04/15 00:05:29;;;;;;;8.33;4.50;;;;;;;-145.18;100.00;46842.06;6153366;23;20693;-73
2023/04/15 00:07:54;;;;;;;12.80;4.40;;;;;;;-145.18;100.00;46838.16;6153013;23;20009;-73
2023/04/15 00:10:19;;;;;;;8.97;4.53;;;;;;;-145.18;100.00;46849.88;6153082;23;20713;-72
2023/04/15 00:12:45;;;;;;;9.10;4.40;;;;;;;-145.18;100.00;46885.03;6153097;23;20013;-72
2023/04/15 00:15:11;;;;;;;7.37;4.47;;;;;;;-145.18;100.00;46857.69;6153037;23;20084;-72
2023/04/15 00:17:37;;;;;;;12.50;5.30;;;;;;;-145.18;100.00;46898.72;6152837;23;20009;-72
2023/04/15 00:20:05;;;;;;;13.23;5.87;;;;;;;-145.18;100.00;46883.09;6152830;23;20677;-73
2023/04/15 00:22:31;;;;;;;11.37;5.30;;;;;;;-145.18;100.00;46894.81;6152321;23;20256;-73
2023/04/15 00:24:57;;;;;;;11.27;5.10;;;;;;;-145.18;100.00;46879.19;6152931;23;20236;-73
2023/04/15 00:27:22;;;;;;;10.43;5.50;;;;;;;-145.18;100.00;46867.44;6152826;23;20262;-73
2023/04/15 00:29:48;;;;;;;9.87;5.53;;;;;;;-145.18;100.00;46869.41;6153162;23;20009;-73
2023/04/15 00:32:13;;;;;;;10.77;5.70;;;;;;;-145.18;100.00;46898.72;6151378;23;20009;-72
2023/04/15 00:34:38;;;;;;;10.37;5.30;;;;;;;-145.18;100.00;46873.31;6152844;23;20703;-73
2023/04/15 00:37:04;;;;;;;12.47;5.60;;;;;;;-145.18;100.00;46867.44;6152461;23;20016;-73
2023/04/15 00:39:29;;;;;;;12.07;5.40;;;;;;;-145.18;100.00;46865.50;6152873;23;20309;-72
2023/04/15 00:41:56;;;;;;;10.37;5.83;;;;;;;-145.18;100.00;46845.97;6152606;23;20017;-73
2023/04/15 00:44:21;;;;;;;12.23;6.27;;;;;;;-145.18;100.00;46820.56;6152804;23;20009;-72
2023/04/15 00:46:50;;;;;;;12.47;5.70;;;;;;;-145.18;100.00;46834.25;6152699;23;20687;-73
2023/04/15 00:49:17;;;;;;;11.00;4.63;;;;;;;-145.18;100.00;46834.25;6152879;23;20005;-73
2023/04/15 00:51:43;;;;;;;9.10;5.70;;;;;;;-145.18;100.00;46842.06;6152662;23;20246;-72
2023/04/15 00:54:09;;;;;;;10.17;5.83;;;;;;;-145.18;100.00;46834.25;6152717;23;20310;-73
2023/04/15 00:56:37;;;;;;;11.63;5.60;;;;;;;-145.18;100.00;46832.28;6152605;23;20227;-73
2023/04/15 00:59:02;;;;;;;9.97;5.97;;;;;;;-145.18;100.00;46822.53;6152353;23;20018;-73
2023/04/15 01:01:28;;;;;;;9.20;6.00;;;;;;;-145.18;100.00;46808.84;6152237;23;20820;-72
2023/04/15 01:03:56;;;;;;;14.90;6.83;;;;;;;-145.18;100.00;46822.53;6152476;23;20013;-73
2023/04/15 01:06:22;;;;;;;18.53;6.57;;;;;;;-145.18;100.00;46818.63;6152622;23;20097;-73
2023/04/15 01:08:47;;;;;;;9.70;5.60;;;;;;;-145.18;100.00;46810.81;6152612;23;20231;-73
2023/04/15 01:11:13;;;;;;;16.90;6.53;;;;;;;-145.18;100.00;46820.56;6151678;23;20077;-73
2023/04/15 01:13:39;;;;;;;11.87;6.10;;;;;;;-145.18;100.00;46812.75;6152361;23;20010;-73
2023/04/15 01:16:06;;;;;;;9.40;5.87;;;;;;;-145.18;100.00;46806.91;6152183;23;20241;-72
2023/04/15 01:18:32;;;;;;;14.10;5.90;;;;;;;-145.18;100.00;46818.63;6152718;23;20014;-73
2023/04/15 01:21:01;;;;;;;13.07;6.17;;;;;;;-145.18;100.00;46785.41;6152529;23;20329;-73
2023/04/15 01:23:26;;;;;;;11.07;5.90;;;;;;;-145.18;100.00;46781.50;6152210;23;20006;-73
2023/04/15 01:25:52;;;;;;;10.93;6.07;;;;;;;-145.18;100.00;46797.13;6152465;23;20258;-73
2023/04/15 01:28:17;;;;;;;10.77;6.23;;;;;;;-145.18;100.00;46801.03;6152074;23;20514;-72
2023/04/15 01:30:43;;;;;;;10.03;6.30;;;;;;;-145.18;100.00;46789.31;6152241;23;20014;-72
2023/04/15 01:33:09;;;;;;;13.10;7.07;;;;;;;-145.18;100.00;46773.69;6152274;23;20088;-72
2023/04/15 01:35:34;;;;;;;10.53;6.70;;;;;;;-145.18;100.00;46754.16;6152639;23;20002;-72
2023/04/15 01:38:10;;;;;;;13.10;6.83;;;;;;;-145.18;100.00;46744.38;6151992;23;20447;-72
2023/04/15 01:40:35;;;;;;;;;;;;;;;-145.18;100.00;46738.53;6152612;23;20431;-72
2023/04/15 01:43:01;;;;;;;10.97;6.50;;;;;;;-145.18;100.00;46730.72;6151800;23;19959;-73
2023/04/15 01:45:27;;;;;;;20.63;7.00;;;;;;;-145.18;100.00;46758.06;6152335;23;20008;-72
2023/04/15 01:47:53;;;;;;;11.87;6.60;;;;;;;-145.18;100.00;46734.63;6152086;23;20236;-72
2023/04/15 01:50:19;;;;;;;13.23;6.83;;;;;;;-145.18;100.00;46740.47;6152534;23;20068;-73
2023/04/15 01:52:45;;;;;;;11.17;7.20;;;;;;;-145.18;100.00;46746.34;6152313;23;20014;-73
2023/04/15 01:55:11;;;;;;;14.97;7.70;;;;;;;-145.18;100.00;46707.28;6152013;23;20232;-72
2023/04/15 01:57:36;;;;;;;12.90;7.37;;;;;;;-145.18;100.00;46711.19;6152096;23;20290;-72
2023/04/15 02:00:02;;;;;;;13.53;8.13;;;;;;;-145.18;100.00;46701.41;6152094;23;20093;-73
2023/04/15 02:02:28;;;;;;;17.07;8.63;;;;;;;-145.18;100.00;46685.78;6148546;23;20027;-72
2023/04/15 02:04:54;;;;;;;14.20;7.70;;;;;;;-145.18;100.00;46687.75;6181327;23;20092;-72
2023/04/15 02:07:19;;;;;;;12.20;7.57;;;;;;;-145.18;100.00;46705.31;6181599;23;20016;-72
2023/04/15 02:09:45;;;;;;;18.80;7.57;;;;;;;-145.18;100.00;46707.28;6182039;23;20235;-72
2023/04/15 02:12:11;;;;;;;18.03;8.00;;;;;;;-145.18;100.00;46703.38;6181761;23;20020;-71
2023/04/15 02:14:36;;;;;;;12.77;8.20;;;;;;;-145.18;100.00;46693.59;6182235;23;20303;-72
2023/04/15 02:17:06;;;;;;;13.50;7.90;;;;;;;-145.18;100.00;46683.84;6181503;23;20239;-71
2023/04/15 02:19:32;;;;;;;13.23;7.77;;;;;;;-145.18;100.00;46676.03;6182021;23;20056;-72
2023/04/15 02:21:58;;;;;;;12.03;7.73;;;;;;;-145.18;100.00;46685.78;6181144;23;20258;-71
2023/04/15 02:24:25;;;;;;;15.17;7.83;;;;;;;-145.18;100.00;46683.84;6183205;23;20294;-71
2023/04/15 02:26:50;;;;;;;17.27;7.90;;;;;;;-145.18;100.00;46681.88;6183479;23;20285;-71
2023/04/15 02:29:16;;;;;;;11.30;7.03;;;;;;;-145.18;100.00;46676.03;6184065;23;20310;-71
2023/04/15 02:31:42;;;;;;;14.53;7.90;;;;;;;-145.18;100.00;46664.31;6183946;23;20012;-72
2023/04/15 02:34:07;;;;;;;10.23;7.20;;;;;;;-145.18;100.00;46685.78;6157727;23;20005;-72
2023/04/15 02:36:33;;;;;;;13.23;6.67;;;;;;;-145.18;100.00;46674.06;6184114;23;20233;-71
2023/04/15 02:38:59;;;;;;;12.80;7.53;;;;;;;-145.18;100.00;46679.94;6183466;23;20005;-71
2023/04/15 02:41:26;;;;;;;11.90;6.97;;;;;;;-145.18;100.00;46664.31;6183995;23;20020;-71
2023/04/15 02:43:52;;;;;;;14.27;7.50;;;;;;;-145.18;100.00;46662.34;6183388;23;20588;-71
2023/04/15 02:46:17;;;;;;;11.50;7.20;;;;;;;-145.18;100.00;46650.63;6183848;23;20231;-71
2023/04/15 02:48:42;;;;;;;13.37;7.40;;;;;;;-145.18;100.00;46650.63;6183881;23;20469;-71
2023/04/15 02:51:19;;;;;;;17.33;7.57;;;;;;;-145.18;100.00;46658.44;6183335;23;20409;-71
2023/04/15 02:53:46;;;;;;;13.77;7.27;;;;;;;-145.18;100.00;46654.53;6183532;23;20005;-72
2023/04/15 02:56:11;;;;;;;14.27;7.40;;;;;;;-145.18;100.00;46658.44;6183630;23;20351;-72
2023/04/15 02:58:38;;;;;;;14.43;7.57;;;;;;;-145.18;100.00;46664.31;6183361;23;20254;-72
2023/04/15 03:01:03;;;;;;;10.67;6.97;;;;;;;-145.18;100.00;46644.78;6183258;23;20005;-72
2023/04/15 03:03:29;;;;;;;14.00;6.80;;;;;;;-145.18;100.00;46650.63;6183011;23;20251;-72
2023/04/15 03:05:55;;;;;;;10.83;7.10;;;;;;;-145.18;100.00;46638.91;6183545;23;20005;-72
2023/04/15 03:08:20;;;;;;;11.83;6.90;;;;;;;-145.18;100.00;46638.91;6183405;23;20005;-72
2023/04/15 03:10:46;;;;;;;15.83;7.93;;;;;;;-145.18;100.00;46633.06;6183455;23;20438;-72
2023/04/15 03:13:11;;;;;;;14.20;6.80;;;;;;;-145.18;100.00;46629.13;6182966;23;20009;-72
2023/04/15 03:15:37;;;;;;;13.63;7.17;;;;;;;-145.18;100.00;46625.22;6183597;23;20346;-72
2023/04/15 03:18:02;;;;;;;13.83;6.77;;;;;;;-145.18;100.00;46627.19;6157104;23;20598;-72
2023/04/15 03:20:27;;;;;;;15.27;6.77;;;;;;;-145.18;100.00;46615.47;6183532;23;20040;-72
2023/04/15 03:22:53;;;;;;;14.77;7.27;;;;;;;-145.18;100.00;46625.22;6183380;23;20017;-72
2023/04/15 03:25:19;;;;;;;14.00;7.03;;;;;;;-145.18;100.00;46658.44;6183456;23;20337;-72
2023/04/15 03:27:44;;;;;;;13.47;7.33;;;;;;;-145.18;100.00;46652.59;6183338;23;20055;-72
2023/04/15 03:30:11;;;;;;;13.20;7.07;;;;;;;-145.18;100.00;46652.59;6183168;23;20009;-72
2023/04/15 03:32:36;;;;;;;13.67;7.43;;;;;;;-145.18;100.00;46617.41;6183310;23;20066;-71
2023/04/15 03:35:02;;;;;;;15.47;7.43;;;;;;;-145.18;100.00;46617.41;6182752;23;20267;-72
2023/04/15 03:37:27;;;;;;;14.63;7.60;;;;;;;-145.18;100.00;46617.41;6183257;23;20451;-72
2023/04/15 03:39:53;;;;;;;15.77;7.40;;;;;;;-145.18;100.00;46654.53;6183230;23;20016;-72
2023/04/15 03:42:18;;;;;;;12.13;6.60;;;;;;;-145.18;100.00;46652.59;6182905;23;20009;-72
2023/04/15 03:44:43;;;;;;;10.70;6.60;;;;;;;-145.18;100.00;46623.28;6183426;23;20020;-72
2023/04/15 03:47:09;;;;;;;11.53;6.60;;;;;;;-145.18;100.00;46617.41;6156450;23;20378;-72
2023/04/15 03:49:35;;;;;;;13.10;7.13;;;;;;;-145.18;100.00;46621.31;6183257;23;20052;-71
2023/04/15 03:52:00;;;;;;;11.23;6.80;;;;;;;-145.18;100.00;46615.47;6183267;23;20009;-71
2023/04/15 03:54:26;;;;;;;11.00;6.43;;;;;;;-145.18;100.00;46654.53;6183139;23;20317;-71
2023/04/15 03:56:51;;;;;;;18.20;7.30;;;;;;;-145.18;100.00;46640.88;6182993;23;20036;-72
2023/04/15 03:59:16;;;;;;;11.53;6.87;;;;;;;-145.18;100.00;46660.41;6183126;23;20488;-72
2023/04/15 04:01:42;;;;;;;10.87;6.37;;;;;;;-145.18;100.00;46658.44;6183025;23;20413;-72
2023/04/15 04:04:07;;;;;;;11.30;7.03;;;;;;;-145.18;100.00;46658.44;6182533;23;20044;-72
2023/04/15 04:06:33;;;;;;;16.17;6.93;;;;;;;-145.18;100.00;46658.44;6183082;23;20024;-72
2023/04/15 04:08:58;;;;;;;14.77;6.37;;;;;;;-145.18;100.00;46654.53;6182776;23;20096;-72
2023/04/15 04:11:24;;;;;;;15.17;6.80;;;;;;;-145.18;100.00;46652.59;6183072;23;20341;-72
2023/04/15 04:13:49;;;;;;;11.37;7.03;;;;;;;-145.18;100.00;46660.41;6182930;23;20008;-72
2023/04/15 04:16:15;;;;;;;11.30;6.70;;;;;;;-145.18;100.00;46660.41;6182463;23;20338;-71
2023/04/15 04:18:40;;;;;;;11.50;6.83;;;;;;;-145.18;100.00;46650.63;6182908;23;20092;-71
2023/04/15 04:21:06;;;;;;;13.50;6.80;;;;;;;-145.18;100.00;46635.00;6182610;23;20021;-71
2023/04/15 04:23:32;;;;;;;13.97;6.67;;;;;;;-145.18;100.00;46638.91;6182869;23;20005;-71
2023/04/15 04:25:57;;;;;;;11.67;7.10;;;;;;;-145.18;100.00;46636.94;6182981;23;20427;-71
2023/04/15 04:28:22;;;;;;;13.67;6.57;;;;;;;-145.18;100.00;46635.00;6182615;23;20335;-71
2023/04/15 04:30:48;;;;;;;13.40;7.10;;;;;;;-145.18;100.00;46629.13;6182857;23;20052;-72
2023/04/15 04:33:13;;;;;;;15.30;7.50;;;;;;;-145.18;100.00;46629.13;6156207;23;20016;-72
2023/04/15 04:35:39;;;;;;;13.50;6.87;;;;;;;-145.18;100.00;46627.19;6182871;23;20014;-72
2023/04/15 04:38:04;;;;;;;12.70;6.93;;;;;;;-145.18;100.00;46631.09;6182360;23;20092;-72
2023/04/15 04:40:30;;;;;;;11.07;6.93;;;;;;;-145.18;100.00;46623.28;6183016;23;20044;-72
2023/04/15 04:42:55;;;;;;;13.93;7.03;;;;;;;-145.18;100.00;46625.22;6182174;23;20012;-72
2023/04/15 04:45:21;;;;;;;12.37;6.93;;;;;;;-145.18;100.00;46625.22;6181980;23;20005;-71
2023/04/15 04:47:47;;;;;;;11.10;6.93;;;;;;;-145.18;100.00;46621.31;6180407;23;20005;-71
2023/04/15 04:50:12;;;;;;;14.77;7.20;;;;;;;-145.18;100.00;46619.38;6181819;23;20009;-71
2023/04/15 04:52:38;;;;;;;12.43;6.97;;;;;;;-145.18;100.00;46627.19;6181810;23;20009;-71
2023/04/15 04:55:04;;;;;;;11.27;6.70;;;;;;;-145.18;100.00;46621.31;6181100;23;20012;-71
2023/04/15 04:57:29;;;;;;;13.33;7.27;;;;;;;-145.18;100.00;46619.38;6181862;23;20068;-72
2023/04/15 04:59:55;;;;;;;13.67;7.03;;;;;;;-145.18;100.00;46619.38;6181684;23;20005;-72
2023/04/15 05:02:21;;;;;;;15.00;6.97;;;;;;;-145.18;100.00;46621.31;6181595;23;20001;-71
2023/04/15 05:04:46;;;;;;;14.33;7.67;;;;;;;-145.18;100.00;46619.38;6181761;23;20016;-72
2023/04/15 05:07:13;;;;;;;11.17;6.80;;;;;;;-145.18;100.00;46570.53;6181655;23;20462;-71
2023/04/15 05:09:38;;;;;;;14.00;7.33;;;;;;;-145.18;100.00;46615.47;6155913;23;20227;-71
2023/04/15 05:12:03;;;;;;;11.30;6.77;;;;;;;-145.18;100.00;46617.41;6182195;23;20339;-71
2023/04/15 05:14:29;;;;;;;12.40;7.27;;;;;;;-145.18;100.00;46619.38;6182236;23;20037;-71
2023/04/15 05:16:54;;;;;;;11.90;7.13;;;;;;;-145.18;100.00;46619.38;6182044;23;20013;-72
2023/04/15 05:19:20;;;;;;;13.67;6.87;;;;;;;-145.18;100.00;46619.38;6182299;23;20032;-71
2023/04/15 05:21:45;;;;;;;12.57;7.77;;;;;;;-145.18;100.00;46617.41;6181975;23;20016;-71
2023/04/15 05:24:11;;;;;;;14.47;7.23;;;;;;;-145.18;100.00;46613.50;6182254;23;20056;-71
2023/04/15 05:26:36;;;;;;;11.83;6.57;;;;;;;-145.18;100.00;46619.38;6182294;23;20009;-71
2023/04/15 05:29:01;;;;;;;15.20;7.30;;;;;;;-145.18;100.00;46621.31;6181884;23;20101;-71
2023/04/15 05:31:27;;;;;;;13.07;6.97;;;;;;;-145.18;100.00;46619.38;6181379;23;20342;-71
2023/04/15 05:33:52;;;;;;;14.20;7.53;;;;;;;-145.18;100.00;46615.47;6180923;23;20595;-71
2023/04/15 05:36:18;;;;;;;12.73;7.93;;;;;;;-145.18;100.00;46576.41;6182325;23;20339;-72
2023/04/15 05:38:43;;;;;;;13.60;7.77;;;;;;;-145.18;100.00;46576.41;6155415;23;20051;-72
2023/04/15 05:41:08;;;;;;;16.03;7.73;;;;;;;-145.18;100.00;46570.53;6181788;23;20015;-71
2023/04/15 05:43:34;;;;;;;14.83;6.90;;;;;;;-145.18;100.00;46574.44;6155470;23;20013;-72
2023/04/15 05:45:59;;;;;;;16.23;7.07;;;;;;;-145.18;100.00;46570.53;6181758;23;20008;-72
2023/04/15 05:48:25;;;;;;;17.20;7.70;;;;;;;-145.18;100.00;46564.69;6181837;23;20430;-72
2023/04/15 05:50:50;;;;;;;12.77;7.47;;;;;;;-145.18;100.00;46564.69;6182155;23;20040;-72
2023/04/15 05:53:15;;;;;;;16.37;7.80;;;;;;;-145.18;100.00;46564.69;6182001;23;20009;-72
2023/04/15 05:55:41;;;;;;;13.27;7.40;;;;;;;-145.18;100.00;46560.78;6181985;23;20009;-72
2023/04/15 05:58:06;;;;;;;15.20;7.80;;;;;;;-145.18;100.00;46562.72;6181306;23;20140;-72
2023/04/15 06:00:32;;;;;;;12.03;7.50;;;;;;;-145.18;100.00;46566.63;6184173;23;20334;-72
2023/04/15 06:02:58;;;;;;;12.73;7.50;;;;;;;-145.18;100.00;46560.78;6183279;23;20017;-72
2023/04/15 06:05:24;;;;;;;12.73;7.57;;;;;;;-145.18;100.00;46562.72;6180353;23;20549;-72
2023/04/15 06:07:50;;;;;;;13.50;7.27;;;;;;;-145.18;100.00;46566.63;6183557;23;20262;-72
2023/04/15 06:10:15;;;;;;;16.63;8.10;;;;;;;-145.18;100.00;46568.59;6183407;23;20005;-71
2023/04/15 06:12:41;;;;;;;12.07;7.40;;;;;;;-145.18;100.00;46562.72;6157690;23;20036;-71
2023/04/15 06:15:09;;;;;;;19.67;7.83;;;;;;;-145.18;100.00;46570.53;6156742;23;20012;-72
2023/04/15 06:17:34;;;;;;;12.87;7.60;;;;;;;-145.18;100.00;46572.50;6182802;23;20009;-72
2023/04/15 06:20:00;;;;;;;12.50;7.50;;;;;;;-145.18;100.00;46574.44;6183176;23;20227;-72
2023/04/15 06:22:25;;;;;;;13.23;7.90;;;;;;;-145.18;100.00;46578.34;6183734;23;20561;-72
2023/04/15 06:24:51;;;;;;;15.70;7.40;;;;;;;-145.18;100.00;46580.31;6156871;23;20008;-71
2023/04/15 06:27:16;;;;;;;13.73;7.37;;;;;;;-145.18;100.00;46570.53;6183352;23;20052;-72
2023/04/15 06:29:42;;;;;;;12.80;7.63;;;;;;;-145.18;100.00;46582.25;6183540;23;20012;-72
2023/04/15 06:32:07;;;;;;;14.30;7.23;;;;;;;-145.18;100.00;46582.25;6183710;23;20009;-72
2023/04/15 06:34:33;;;;;;;13.53;8.17;;;;;;;-145.18;100.00;46590.06;6183086;23;20005;-72
2023/04/15 06:36:58;;;;;;;14.67;7.97;;;;;;;-145.18;100.00;46590.06;6183534;23;20005;-72
2023/04/15 06:39:23;;;;;;;12.23;7.83;;;;;;;-145.18;100.00;46586.16;6157240;23;20499;-72
2023/04/15 06:41:49;;;;;;;12.20;8.27;;;;;;;-145.18;100.00;46595.94;6183539;23;20028;-72
2023/04/15 06:44:15;;;;;;;13.23;6.67;;;;;;;-145.18;100.00;46593.97;6183549;23;20019;-72
2023/04/15 06:46:40;;;;;;;13.23;7.80;;;;;;;-145.18;100.00;46609.59;6183274;23;20028;-72
2023/04/15 06:49:06;;;;;;;12.60;7.00;;;;;;;-145.18;100.00;46597.88;6181053;23;20446;-72
2023/04/15 06:51:33;;;;;;;12.20;7.40;;;;;;;-145.18;100.00;46597.88;6183328;23;20013;-71
2023/04/15 06:53:58;;;;;;;14.03;7.97;;;;;;;-145.18;100.00;46595.94;6182724;23;20339;-72
2023/04/15 06:56:23;;;;;;;14.43;8.73;;;;;;;-145.18;100.00;46607.66;6183249;23;20319;-73
2023/04/15 06:58:49;;;;;;;13.53;7.47;;;;;;;-145.18;100.00;46609.59;6183265;23;20028;-73
2023/04/15 07:01:14;;;;;;;14.80;8.00;;;;;;;-145.18;100.00;46609.59;6183214;23;20019;-73
2023/04/15 07:03:40;;;;;;;12.60;7.47;;;;;;;-145.18;100.00;46611.56;6183025;23;20071;-73
2023/04/15 07:06:06;;;;;;;14.83;7.63;;;;;;;-145.18;100.00;46609.59;6182922;23;20584;-73
2023/04/15 07:08:32;;;;;;;10.10;6.87;;;;;;;-145.18;100.00;46617.41;6183382;23;20318;-72
2023/04/15 07:10:59;;;;;;;12.07;7.40;;;;;;;-145.18;100.00;46625.22;6182660;23;20009;-72
2023/04/15 07:13:24;;;;;;;15.03;7.43;;;;;;;-145.18;100.00;46611.56;6183348;23;20235;-72
2023/04/15 07:15:50;;;;;;;13.40;7.43;;;;;;;-145.18;100.00;46615.47;6183193;23;20273;-73
2023/04/15 07:18:15;;;;;;;13.97;7.43;;;;;;;-145.18;100.00;46627.19;6183154;23;20067;-73
2023/04/15 07:20:41;;;;;;;14.93;8.00;;;;;;;-145.18;100.00;46633.06;6183372;23;20059;-73
2023/04/15 07:23:07;;;;;;;11.23;6.73;;;;;;;-145.18;100.00;46642.81;6182504;23;20019;-73
2023/04/15 07:25:32;;;;;;;11.60;7.50;;;;;;;-145.18;100.00;46642.81;6183435;23;20019;-72
2023/04/15 07:27:57;;;;;;;13.90;7.63;;;;;;;-145.18;100.00;46650.63;6182543;23;20499;-73
2023/04/15 07:30:23;;;;;;;10.87;7.37;;;;;;;-145.18;100.00;46640.88;6183379;23;20040;-73
2023/04/15 07:32:48;;;;;;;11.60;7.83;;;;;;;-145.18;100.00;46636.94;6182915;23;20012;-72
2023/04/15 07:35:14;;;;;;;13.37;7.37;;;;;;;-145.18;100.00;46636.94;6182782;23;20071;-72
2023/04/15 07:37:40;;;;;;;10.83;7.27;;;;;;;-145.18;100.00;46633.06;6183321;23;20009;-72
2023/04/15 07:40:06;;;;;;;15.33;8.40;;;;;;;-145.18;100.00;46636.94;6182621;23;20009;-73
2023/04/15 07:42:33;;;;;;;12.07;6.53;;;;;;;-145.18;100.00;46636.94;6183071;23;20259;-73
2023/04/15 07:44:58;;;;;;;11.47;6.77;;;;;;;-145.18;100.00;46627.19;6182686;23;20096;-73
2023/04/15 07:47:23;;;;;;;11.43;7.17;;;;;;;-145.18;100.00;46638.91;6183041;23;20318;-72
2023/04/15 07:49:50;;;;;;;10.87;6.33;;;;;;;-145.18;100.00;46633.06;6182544;23;20096;-73
2023/04/15 07:52:16;;;;;;;11.70;7.30;;;;;;;-145.18;100.00;46640.88;6182620;23;20012;-73
2023/04/15 07:54:41;;;;;;;12.20;7.17;;;;;;;-145.18;100.00;46635.00;6182571;23;20223;-72
2023/04/15 07:57:07;;;;;;;10.60;6.93;;;;;;;-145.18;100.00;46627.19;6182511;23;20084;-73
2023/04/15 07:59:32;;;;;;;15.37;6.57;;;;;;;-145.18;100.00;46629.13;6181832;23;20005;-73
2023/04/15 08:01:58;;;;;;;8.87;5.90;;;;;;;-145.18;100.00;46646.72;6182458;23;20064;-73
2023/04/15 08:04:24;;;;;;;10.47;5.50;;;;;;;-145.18;100.00;46664.31;6181975;23;20029;-73
2023/04/15 08:06:49;;;;;;;9.53;6.33;;;;;;;-145.18;100.00;46699.47;6182588;23;20005;-72
2023/04/15 08:09:15;;;;;;;9.83;5.50;;;;;;;-145.18;100.00;46703.38;6182383;23;20034;-73
2023/04/15 08:11:40;;;;;;;8.63;5.40;;;;;;;-145.18;100.00;46709.22;6182718;23;20076;-73
2023/04/15 08:14:06;;;;;;;9.57;5.80;;;;;;;-145.18;100.00;46730.72;6181867;23;20001;-72
2023/04/15 08:16:32;;;;;;;8.70;5.80;;;;;;;-145.18;100.00;46746.34;6181897;23;20036;-73
2023/04/15 08:18:57;;;;;;;9.90;5.70;;;;;;;-145.18;100.00;46742.44;6181882;23;20009;-73
2023/04/15 08:21:23;;;;;;;9.67;5.43;;;;;;;-145.18;100.00;46748.28;6182333;23;20013;-73
2023/04/15 08:23:50;;;;;;;10.53;6.03;;;;;;;-145.18;100.00;46750.25;6181968;23;20312;-72
2023/04/15 08:26:16;;;;;;;9.07;6.20;;;;;;;-145.18;100.00;46746.34;6181305;23;20005;-72
2023/04/15 08:28:43;;;;;;;9.47;5.83;;;;;;;-145.18;100.00;46734.63;6182292;23;20715;-73
2023/04/15 08:31:09;;;;;;;9.23;5.60;;;;;;;-145.18;100.00;46750.25;6181133;23;20123;-73
2023/04/15 08:33:34;;;;;;;10.07;6.23;;;;;;;-145.18;100.00;46758.06;6180308;23;20231;-73
2023/04/15 08:36:00;;;;;;;11.27;6.50;;;;;;;-145.18;100.00;46761.97;6180788;23;20009;-73
2023/04/15 08:38:25;;;;;;;9.60;6.20;;;;;;;-145.18;100.00;46838.16;6181892;23;20083;-73
2023/04/15 08:40:51;;;;;;;10.30;6.23;;;;;;;-145.18;100.00;46887.00;6182567;23;20017;-73
2023/04/15 08:43:29;;;;;;;9.80;5.73;;;;;;;-145.18;100.00;47117.50;6182039;23;20009;-73
2023/04/15 08:45:54;;;;;;;13.03;6.10;;;;;;;-145.18;100.00;47121.41;6182610;23;20009;-73
2023/04/15 08:48:21;;;;;;;10.77;5.77;;;;;;;-145.18;100.00;47340.22;6182140;23;20009;-73
2023/04/15 08:50:47;;;;;;;12.23;6.40;;;;;;;-145.18;100.00;47371.47;6181849;23;20005;-73
2023/04/15 08:53:13;;;;;;;11.80;6.10;;;;;;;-145.18;100.00;47453.53;6181857;23;20044;-73
2023/04/15 08:55:46;;;;;;;10.03;6.30;;;;;;;-145.18;100.00;47463.31;6155908;23;20071;-73
2023/04/15 08:58:12;;;;;;;12.47;6.73;;;;;;;-145.18;100.00;47435.94;6181982;23;20005;-73
2023/04/15 09:00:39;;;;;;;10.97;6.13;;;;;;;-145.18;100.00;47449.63;6181947;23;20055;-73
2023/04/15 09:03:06;;;;;;;9.17;5.77;;;;;;;-145.18;100.00;47418.38;6154845;23;20104;-73
2023/04/15 09:05:32;;;;;;;9.73;5.37;;;;;;;-145.18;100.00;47361.72;6181986;23;20454;-73
2023/04/15 09:07:58;;;;;;;12.20;5.33;;;;;;;-145.18;100.00;47355.84;6181902;23;20005;-73
2023/04/15 09:10:23;;;;;;;10.43;5.10;;;;;;;-145.18;100.00;47355.84;6182004;23;20001;-73
2023/04/15 09:12:49;;;;;;;8.67;4.97;;;;;;;-145.18;100.00;47342.16;6182189;23;20056;-73
2023/04/15 09:15:15;;;;;;;10.23;5.37;;;;;;;-145.18;100.00;47340.22;6181144;23;20069;-72
2023/04/15 09:17:44;;;;;;;8.70;4.50;;;;;;;-145.18;100.00;47332.41;6182345;23;20009;-73
2023/04/15 09:20:12;;;;;;;7.03;4.23;;;;;;;-145.18;100.00;47336.31;6181614;23;20005;-72
2023/04/15 09:22:39;;;;;;;6.43;4.27;;;;;;;-145.18;100.00;47338.25;6182237;23;20009;-73
2023/04/15 09:25:28;;;;;;;9.77;4.43;;;;;;;-145.18;100.00;47312.88;6181529;23;20021;-73
2023/04/15 09:27:58;;;;;;;7.20;3.60;;;;;;;-145.18;100.00;47307.00;6182049;23;20009;-73
2023/04/15 09:30:24;;;;;;;9.93;4.13;;;;;;;-145.18;100.00;47305.06;6182033;23;20059;-73
2023/04/15 09:32:50;;;;;;;6.17;3.33;;;;;;;-145.18;100.00;47316.78;6182042;23;20017;-73
2023/04/15 09:35:16;;;;;;;6.77;3.27;;;;;;;-145.18;100.00;47312.88;6181141;23;20083;-73
2023/04/15 09:37:42;;;;;;;8.20;3.77;;;;;;;-145.18;100.00;47320.69;6182135;23;20517;-73
2023/04/15 09:40:08;;;;;;;6.83;4.10;;;;;;;-145.18;100.00;47324.59;6179770;23;20017;-72
2023/04/15 09:42:34;;;;;;;5.80;3.87;;;;;;;-145.18;100.00;47289.41;6181635;23;20088;-72
2023/04/15 09:45:12;;;;;;;6.27;3.80;;;;;;;-145.18;100.00;47301.16;6181242;23;20115;-73
2023/04/15 09:47:37;;;;;;;10.57;3.43;;;;;;;-145.18;100.00;47277.69;6181534;23;20017;-73
2023/04/15 09:50:03;;;;;;;8.83;3.37;;;;;;;-145.18;100.00;47293.31;6181410;23;20020;-72
2023/04/15 09:52:29;;;;;;;6.70;3.93;;;;;;;-145.18;100.00;47295.28;6181720;23;20323;-73
2023/04/15 09:54:57;;;;;;;6.73;3.53;;;;;;;-145.18;100.00;47307.00;6181027;23;20009;-72
2023/04/15 09:57:23;;;;;;;5.27;3.20;;;;;;;-145.18;100.00;47285.50;6181785;23;20442;-72
2023/04/15 09:59:49;;;;;;;8.20;3.33;;;;;;;-145.18;100.00;47281.59;6181410;23;20008;-72
2023/04/15 10:02:17;;;;;;;3.90;2.63;;;;;;;-145.18;100.00;47283.56;6181224;23;20146;-72
2023/04/15 10:04:43;;;;;;;7.77;2.93;;;;;;;-145.18;100.00;47293.31;6181413;23;20069;-72
2023/04/15 10:07:11;;;;;;;5.17;2.73;;;;;;;-145.18;100.00;47312.88;6181054;23;20037;-73
2023/04/15 10:09:37;;;;;;;7.50;2.70;;;;;;;-145.18;100.00;47295.28;6177466;23;20009;-72
2023/04/15 10:12:04;;;;;;;4.80;2.50;;;;;;;-145.18;100.00;47291.38;6178011;23;20079;-72
2023/04/15 10:14:33;;;;;;;6.23;2.90;;;;;;;-145.18;100.00;47293.31;6178566;23;20003;-73
2023/04/15 10:17:01;;;;;;;6.40;3.00;;;;;;;-145.18;100.00;47275.75;6180828;23;20007;-73
2023/04/15 10:19:30;;;;;;;8.40;2.80;;;;;;;-145.18;100.00;47273.78;6181179;23;20005;-72
2023/04/15 10:21:55;;;;;;;7.40;3.00;;;;;;;-145.18;100.00;47262.06;6181873;23;20020;-72
2023/04/15 10:24:22;;;;;;;6.53;3.40;;;;;;;-145.18;100.00;47305.06;6181361;23;20009;-72
2023/04/15 10:26:50;;;;;;;7.73;2.70;;;;;;;-145.18;100.00;47283.56;6181734;23;20009;-72
2023/04/15 10:29:15;;;;;;;4.90;2.37;;;;;;;-145.18;100.00;47275.75;6181290;23;20316;-72
2023/04/15 10:31:42;;;;;;;4.63;2.60;;;;;;;-145.18;100.00;47279.66;6181892;23;20016;-72
2023/04/15 10:34:08;;;;;;;5.87;2.70;;;;;;;-145.18;100.00;47269.88;6181190;23;20067;-72
2023/04/15 10:36:33;;;;;;;4.43;2.30;;;;;;;-145.18;100.00;47269.88;6180401;23;20370;-72
2023/04/15 10:38:59;;;;;;;4.20;2.50;;;;;;;-145.18;100.00;47265.97;6180429;23;20005;-72
2023/04/15 10:41:30;;;;;;;2.63;2.00;;;;;;;-145.18;100.00;47267.94;6181427;23;20028;-72
2023/04/15 10:43:58;;;;;;;5.67;2.40;;;;;;;-145.18;100.00;47254.25;6154618;23;20338;-72
2023/04/15 10:46:39;;;;;;;4.93;1.93;;;;;;;-145.18;100.00;47262.06;6182806;23;20028;-72
2023/04/15 10:49:10;;;;;;;4.93;2.17;;;;;;;-145.18;100.00;47258.16;6180985;23;20059;-72
2023/04/15 10:51:50;;;;;;;7.67;2.13;;;;;;;-145.18;100.00;47289.41;6183026;23;20013;-72
2023/04/15 10:54:24;;;;;;;2.63;1.63;;;;;;;-145.18;100.00;47305.06;6182966;23;20012;-72
2023/04/15 10:57:10;;;;;;;4.40;2.00;;;;;;;-145.18;100.00;47305.06;6156475;23;20332;-72
2023/04/15 10:59:57;;;;;;;3.97;2.20;;;;;;;-145.18;100.00;47293.31;6156909;23;20032;-72